createdAt,value
2017-10-10T00:00:45.920Z,89.15
2017-10-10T00:01:45.939Z,89.87
2017-10-10T00:02:45.957Z,90.06
2017-10-10T00:03:45.979Z,90.54
2017-10-10T00:04:45.997Z,90.73
2017-10-10T00:05:46.016Z,90.49
2017-10-10T00:06:46.038Z,89.06
2017-10-10T00:07:46.055Z,90.11
2017-10-10T00:08:46.085Z,89.87
2017-10-10T00:09:46.094Z,90.25
2017-10-10T00:10:46.113Z,90.30
2017-10-10T00:11:46.133Z,89.78
2017-10-10T00:12:46.169Z,90.06
2017-10-10T00:13:46.173Z,90.54
2017-10-10T00:14:46.200Z,90.83
2017-10-10T00:15:46.212Z,90.54
2017-10-10T00:16:46.231Z,90.54
2017-10-10T00:17:46.252Z,90.35
2017-10-10T00:18:46.271Z,90.49
2017-10-10T00:19:46.290Z,90.64
2017-10-10T00:20:46.309Z,90.83
2017-10-10T00:21:46.332Z,90.45
2017-10-10T00:22:46.346Z,90.59
2017-10-10T00:23:46.366Z,90.30
2017-10-10T00:24:46.384Z,90.30
2017-10-10T00:25:46.411Z,90.35
2017-10-10T00:26:46.425Z,90.49
2017-10-10T00:27:46.445Z,90.68
2017-10-10T00:28:46.464Z,90.59
2017-10-10T00:29:46.485Z,90.25
2017-10-10T00:30:46.504Z,90.49
2017-10-10T00:31:46.524Z,90.49
2017-10-10T00:32:46.542Z,90.20
2017-10-10T00:33:46.572Z,90.20
2017-10-10T00:34:46.582Z,89.63
2017-10-10T00:35:46.600Z,90.11
2017-10-10T00:36:46.622Z,90.49
2017-10-10T00:37:46.641Z,89.15
2017-10-10T00:38:46.660Z,89.53
2017-10-10T00:39:46.680Z,90.20
2017-10-10T00:40:46.698Z,89.15
2017-10-10T00:41:46.719Z,89.15
2017-10-10T00:42:46.738Z,89.34
2017-10-10T00:43:46.756Z,90.35
2017-10-10T00:44:46.778Z,90.20
2017-10-10T00:45:46.798Z,90.49
2017-10-10T00:46:46.815Z,90.01
2017-10-10T00:47:46.836Z,90.54
2017-10-10T00:48:46.857Z,90.64
2017-10-10T00:49:46.876Z,89.73
2017-10-10T00:50:46.894Z,89.34
2017-10-10T00:51:46.914Z,89.25
2017-10-10T00:52:46.935Z,89.82
2017-10-10T00:53:46.952Z,90.25
2017-10-10T00:54:46.982Z,90.25
2017-10-10T00:55:47.010Z,89.97
2017-10-10T00:56:47.011Z,90.25
2017-10-10T00:57:47.031Z,89.87
2017-10-10T00:58:47.055Z,89.87
2017-10-10T00:59:47.072Z,89.78
2017-10-10T01:00:47.094Z,89.78
2017-10-10T01:01:47.111Z,89.44
2017-10-10T01:02:47.133Z,89.63
2017-10-10T01:03:47.150Z,90.06
2017-10-10T01:04:47.168Z,90.45
2017-10-10T01:05:47.191Z,90.54
2017-10-10T01:06:47.208Z,90.25
2017-10-10T01:07:47.229Z,90.54
2017-10-10T01:08:47.248Z,90.45
2017-10-10T01:09:47.266Z,89.87
2017-10-10T01:10:47.286Z,89.73
2017-10-10T01:11:47.303Z,89.34
2017-10-10T01:12:47.323Z,89.25
2017-10-10T01:13:47.344Z,88.77
2017-10-10T01:14:47.364Z,88.87
2017-10-10T01:15:47.385Z,88.96
2017-10-10T01:16:47.401Z,88.82
2017-10-10T01:17:47.422Z,89.25
2017-10-10T01:18:47.439Z,88.77
2017-10-10T01:19:47.464Z,89.15
2017-10-10T01:20:47.479Z,88.58
2017-10-10T01:21:47.498Z,88.92
2017-10-10T01:22:47.517Z,89.68
2017-10-10T01:23:47.538Z,90.06
2017-10-10T01:24:47.556Z,89.59
2017-10-10T01:25:47.576Z,89.30
2017-10-10T01:26:47.596Z,89.68
2017-10-10T01:27:47.615Z,89.11
2017-10-10T01:28:47.635Z,89.30
2017-10-10T01:29:47.656Z,89.49
2017-10-10T01:30:47.676Z,89.30
2017-10-10T01:31:47.697Z,89.06
2017-10-10T01:32:47.713Z,89.49
2017-10-10T01:33:47.731Z,89.78
2017-10-10T01:34:47.753Z,89.49
2017-10-10T01:35:47.770Z,89.87
2017-10-10T01:36:47.792Z,89.49
2017-10-10T01:37:47.811Z,88.96
2017-10-10T01:38:47.830Z,88.92
2017-10-10T01:39:47.849Z,89.11
2017-10-10T01:40:47.873Z,89.06
2017-10-10T01:41:47.888Z,89.34
2017-10-10T01:42:47.908Z,88.96
2017-10-10T01:43:47.929Z,89.15
2017-10-10T01:44:47.946Z,89.06
2017-10-10T01:45:47.966Z,89.25
2017-10-10T01:46:47.985Z,88.96
2017-10-10T01:47:48.006Z,89.30
2017-10-10T01:48:48.023Z,89.53
2017-10-10T01:49:48.045Z,88.73
2017-10-10T01:50:48.067Z,88.82
2017-10-10T01:51:48.084Z,88.77
2017-10-10T01:52:48.103Z,88.01
2017-10-10T01:53:48.121Z,88.48
2017-10-10T01:54:48.141Z,89.30
2017-10-10T01:55:48.164Z,89.15
2017-10-10T01:56:48.182Z,88.58
2017-10-10T01:57:48.200Z,88.96
2017-10-10T01:58:48.222Z,88.68
2017-10-10T01:59:48.241Z,88.77
2017-10-10T02:00:48.261Z,88.58
2017-10-10T02:01:48.282Z,88.48
2017-10-10T02:02:48.299Z,88.48
2017-10-10T02:03:48.316Z,88.10
2017-10-10T02:04:48.340Z,88.01
2017-10-10T02:05:48.359Z,87.62
2017-10-10T02:06:48.376Z,86.96
2017-10-10T02:07:48.417Z,87.53
2017-10-10T02:08:48.416Z,87.91
2017-10-10T02:09:48.438Z,86.61
2017-10-10T02:10:48.457Z,86.43
2017-10-10T02:11:48.473Z,86.14
2017-10-10T02:12:48.495Z,86.04
2017-10-10T02:13:48.513Z,86.14
2017-10-10T02:14:48.549Z,85.75
2017-10-10T02:15:48.552Z,85.75
2017-10-10T02:16:48.573Z,85.57
2017-10-10T02:17:48.593Z,85.57
2017-10-10T02:18:48.614Z,86.04
2017-10-10T02:19:48.633Z,86.14
2017-10-10T02:20:48.653Z,86.14
2017-10-10T02:21:48.679Z,85.66
2017-10-10T02:22:48.691Z,86.14
2017-10-10T02:23:48.714Z,85.94
2017-10-10T02:24:48.728Z,85.75
2017-10-10T02:25:48.748Z,86.33
2017-10-10T02:26:48.769Z,86.90
2017-10-10T02:27:48.788Z,87.24
2017-10-10T02:28:48.810Z,87.34
2017-10-10T02:29:48.828Z,87.43
2017-10-10T02:30:48.850Z,87.53
2017-10-10T02:31:48.869Z,86.86
2017-10-10T02:32:48.887Z,86.90
2017-10-10T02:33:48.909Z,86.80
2017-10-10T02:34:48.928Z,87.24
2017-10-10T02:35:48.946Z,86.96
2017-10-10T02:36:48.967Z,87.29
2017-10-10T02:37:48.985Z,86.90
2017-10-10T02:38:49.007Z,86.33
2017-10-10T02:39:49.026Z,86.33
2017-10-10T02:40:49.047Z,86.90
2017-10-10T02:41:49.066Z,86.04
2017-10-10T02:42:49.085Z,85.94
2017-10-10T02:43:49.107Z,86.52
2017-10-10T02:44:49.128Z,86.86
2017-10-10T02:45:49.150Z,87.62
2017-10-10T02:46:49.164Z,87.53
2017-10-10T02:47:49.184Z,87.91
2017-10-10T02:48:49.221Z,88.39
2017-10-10T02:49:49.231Z,88.39
2017-10-10T02:50:49.244Z,88.58
2017-10-10T02:51:49.263Z,88.01
2017-10-10T02:52:49.284Z,87.76
2017-10-10T02:53:49.302Z,87.00
2017-10-10T02:54:49.324Z,87.29
2017-10-10T02:55:49.348Z,87.19
2017-10-10T02:56:49.363Z,87.19
2017-10-10T02:57:49.381Z,86.71
2017-10-10T02:58:49.402Z,87.29
2017-10-10T02:59:49.421Z,87.29
2017-10-10T03:00:49.442Z,87.82
2017-10-10T03:01:49.463Z,88.01
2017-10-10T03:02:49.479Z,88.10
2017-10-10T03:03:49.502Z,88.77
2017-10-10T03:04:49.522Z,87.91
2017-10-10T03:05:49.541Z,88.01
2017-10-10T03:06:49.561Z,88.10
2017-10-10T03:07:49.578Z,87.57
2017-10-10T03:08:49.598Z,87.29
2017-10-10T03:09:49.620Z,87.91
2017-10-10T03:10:49.637Z,87.53
2017-10-10T03:11:49.659Z,88.20
2017-10-10T03:12:49.680Z,88.77
2017-10-10T03:13:49.698Z,88.58
2017-10-10T03:14:49.718Z,88.58
2017-10-10T03:15:49.737Z,88.01
2017-10-10T03:16:49.759Z,87.62
2017-10-10T03:17:49.777Z,87.53
2017-10-10T03:18:49.797Z,88.20
2017-10-10T03:19:49.820Z,87.62
2017-10-10T03:20:49.835Z,87.53
2017-10-10T03:21:49.855Z,87.09
2017-10-10T03:22:49.885Z,87.86
2017-10-10T03:23:49.896Z,87.09
2017-10-10T03:24:49.916Z,87.00
2017-10-10T03:25:49.933Z,87.86
2017-10-10T03:26:49.956Z,87.00
2017-10-10T03:27:49.980Z,86.71
2017-10-10T03:28:49.996Z,86.04
2017-10-10T03:29:50.020Z,86.23
2017-10-10T03:30:50.037Z,86.71
2017-10-10T03:31:50.057Z,88.01
2017-10-10T03:32:50.076Z,87.66
2017-10-10T03:33:50.095Z,87.00
2017-10-10T03:34:50.114Z,86.71
2017-10-10T03:35:50.135Z,86.61
2017-10-10T03:36:50.157Z,86.14
2017-10-10T03:37:50.175Z,87.00
2017-10-10T03:38:50.194Z,86.90
2017-10-10T03:39:50.214Z,87.86
2017-10-10T03:40:50.234Z,87.91
2017-10-10T03:41:50.254Z,88.01
2017-10-10T03:42:50.272Z,87.62
2017-10-10T03:43:50.313Z,88.01
2017-10-10T03:44:50.312Z,88.05
2017-10-10T03:45:50.330Z,87.34
2017-10-10T03:46:50.351Z,88.01
2017-10-10T03:47:50.374Z,88.48
2017-10-10T03:48:50.393Z,89.34
2017-10-10T03:49:50.409Z,89.25
2017-10-10T03:50:50.430Z,88.87
2017-10-10T03:51:50.450Z,88.77
2017-10-10T03:52:50.473Z,89.25
2017-10-10T03:53:50.489Z,89.06
2017-10-10T03:54:50.510Z,89.53
2017-10-10T03:55:50.529Z,88.96
2017-10-10T03:56:50.549Z,88.77
2017-10-10T03:57:50.569Z,88.77
2017-10-10T03:58:50.587Z,88.01
2017-10-10T03:59:50.606Z,88.01
2017-10-10T04:00:50.629Z,88.48
2017-10-10T04:01:50.654Z,88.81
2017-10-10T04:02:50.665Z,88.05
2017-10-10T04:03:50.686Z,88.77
2017-10-10T04:04:50.710Z,88.77
2017-10-10T04:05:50.725Z,88.58
2017-10-10T04:06:50.743Z,88.77
2017-10-10T04:07:50.765Z,87.95
2017-10-10T04:08:50.786Z,87.86
2017-10-10T04:09:50.815Z,87.19
2017-10-10T04:10:50.825Z,87.95
2017-10-10T04:11:50.845Z,87.09
2017-10-10T04:12:50.870Z,87.48
2017-10-10T04:13:50.881Z,87.29
2017-10-10T04:14:50.904Z,86.33
2017-10-10T04:15:50.923Z,86.90
2017-10-10T04:16:50.945Z,86.71
2017-10-10T04:17:51.031Z,86.61
2017-10-10T04:18:50.983Z,86.52
2017-10-10T04:19:51.003Z,86.33
2017-10-10T04:20:51.023Z,86.90
2017-10-10T04:21:51.041Z,87.19
2017-10-10T04:22:51.063Z,87.19
2017-10-10T04:23:51.082Z,87.29
2017-10-10T04:24:51.100Z,87.48
2017-10-10T04:25:51.124Z,87.66
2017-10-10T04:26:51.140Z,88.01
2017-10-10T04:27:51.162Z,88.20
2017-10-10T04:28:51.180Z,88.77
2017-10-10T04:29:51.200Z,88.87
2017-10-10T04:30:51.219Z,88.72
2017-10-10T04:31:51.240Z,88.20
2017-10-10T04:32:51.258Z,88.58
2017-10-10T04:33:51.280Z,88.39
2017-10-10T04:34:51.300Z,88.39
2017-10-10T04:35:51.320Z,89.15
2017-10-10T04:36:51.341Z,88.96
2017-10-10T04:37:51.361Z,88.77
2017-10-10T04:38:51.377Z,88.77
2017-10-10T04:39:51.397Z,88.01
2017-10-10T04:40:51.418Z,88.15
2017-10-10T04:41:51.437Z,88.39
2017-10-10T04:42:51.456Z,88.39
2017-10-10T04:43:51.479Z,89.25
2017-10-10T04:44:51.497Z,88.77
2017-10-10T04:45:51.517Z,88.58
2017-10-10T04:46:51.536Z,88.01
2017-10-10T04:47:51.564Z,88.39
2017-10-10T04:48:51.578Z,88.87
2017-10-10T04:49:51.596Z,88.48
2017-10-10T04:50:51.639Z,88.05
2017-10-10T04:51:51.651Z,87.66
2017-10-10T04:52:51.655Z,87.66
2017-10-10T04:53:51.676Z,87.86
2017-10-10T04:54:51.696Z,87.66
2017-10-10T04:55:51.714Z,87.66
2017-10-10T04:56:51.736Z,87.48
2017-10-10T04:57:51.751Z,86.90
2017-10-10T04:58:51.773Z,87.95
2017-10-10T04:59:51.792Z,87.38
2017-10-10T05:00:51.812Z,87.38
2017-10-10T05:01:51.829Z,87.09
2017-10-10T05:02:51.852Z,86.90
2017-10-10T05:03:51.871Z,86.90
2017-10-10T05:04:51.893Z,86.90
2017-10-10T05:05:51.913Z,86.33
2017-10-10T05:06:51.932Z,86.61
2017-10-10T05:07:51.953Z,86.76
2017-10-10T05:08:51.971Z,85.89
2017-10-10T05:09:51.991Z,86.43
2017-10-10T05:10:52.010Z,87.09
2017-10-10T05:11:52.037Z,87.38
2017-10-10T05:12:52.051Z,86.80
2017-10-10T05:13:52.069Z,87.19
2017-10-10T05:14:52.090Z,87.38
2017-10-10T05:15:52.113Z,87.09
2017-10-10T05:16:52.132Z,87.76
2017-10-10T05:17:52.153Z,88.43
2017-10-10T05:18:52.171Z,88.15
2017-10-10T05:19:52.190Z,87.86
2017-10-10T05:20:52.211Z,87.57
2017-10-10T05:21:52.230Z,87.29
2017-10-10T05:22:52.249Z,87.09
2017-10-10T05:23:52.270Z,87.29
2017-10-10T05:24:52.287Z,86.80
2017-10-10T05:25:52.313Z,86.90
2017-10-10T05:26:52.328Z,87.19
2017-10-10T05:27:52.352Z,87.09
2017-10-10T05:28:52.369Z,87.19
2017-10-10T05:29:52.389Z,86.80
2017-10-10T05:30:52.406Z,86.52
2017-10-10T05:31:52.433Z,86.52
2017-10-10T05:32:52.451Z,86.71
2017-10-10T05:33:52.468Z,86.61
2017-10-10T05:34:52.494Z,87.38
2017-10-10T05:35:52.511Z,87.57
2017-10-10T05:36:52.535Z,87.66
2017-10-10T05:37:52.547Z,87.38
2017-10-10T05:38:52.565Z,87.86
2017-10-10T05:39:52.589Z,87.86
2017-10-10T05:40:52.606Z,87.66
2017-10-10T05:41:52.627Z,87.57
2017-10-10T05:42:52.645Z,87.48
2017-10-10T05:43:52.665Z,87.76
2017-10-10T05:44:52.686Z,88.05
2017-10-10T05:45:52.711Z,87.86
2017-10-10T05:46:52.725Z,87.48
2017-10-10T05:47:52.747Z,87.09
2017-10-10T05:48:52.764Z,87.66
2017-10-10T05:49:52.784Z,87.66
2017-10-10T05:50:52.805Z,87.00
2017-10-10T05:51:52.823Z,86.80
2017-10-10T05:52:52.846Z,86.43
2017-10-10T05:53:52.865Z,86.28
2017-10-10T05:54:52.894Z,85.99
2017-10-10T05:55:52.904Z,86.37
2017-10-10T05:56:52.922Z,86.23
2017-10-10T05:57:52.945Z,86.08
2017-10-10T05:58:52.965Z,86.08
2017-10-10T05:59:52.986Z,85.61
2017-10-10T06:00:53.001Z,85.71
2017-10-10T06:01:53.021Z,85.80
2017-10-10T06:02:53.044Z,85.99
2017-10-10T06:03:53.067Z,86.37
2017-10-10T06:04:53.081Z,86.08
2017-10-10T06:05:53.102Z,85.71
2017-10-10T06:06:53.125Z,85.89
2017-10-10T06:07:53.149Z,86.18
2017-10-10T06:08:53.166Z,85.89
2017-10-10T06:09:53.183Z,85.71
2017-10-10T06:10:53.199Z,86.28
2017-10-10T06:11:53.219Z,86.18
2017-10-10T06:12:53.258Z,85.51
2017-10-10T06:13:53.260Z,85.51
2017-10-10T06:14:53.279Z,85.41
2017-10-10T06:15:53.304Z,85.32
2017-10-10T06:16:53.324Z,85.32
2017-10-10T06:17:53.338Z,85.99
2017-10-10T06:18:53.364Z,85.71
2017-10-10T06:19:53.425Z,85.89
2017-10-10T06:20:53.399Z,85.89
2017-10-10T06:21:53.420Z,85.71
2017-10-10T06:22:53.442Z,85.13
2017-10-10T06:23:53.569Z,85.51
2017-10-10T06:24:53.480Z,85.80
2017-10-10T06:25:53.513Z,86.18
2017-10-10T06:26:53.521Z,85.89
2017-10-10T06:27:53.567Z,85.89
2017-10-10T06:28:53.559Z,85.71
2017-10-10T06:29:53.597Z,85.13
2017-10-10T06:30:53.601Z,85.51
2017-10-10T06:31:53.622Z,85.32
2017-10-10T06:32:53.640Z,86.18
2017-10-10T06:33:53.659Z,85.51
2017-10-10T06:34:53.678Z,85.51
2017-10-10T06:35:53.701Z,85.41
2017-10-10T06:36:53.733Z,85.41
2017-10-10T06:37:53.738Z,85.61
2017-10-10T06:38:53.757Z,85.61
2017-10-10T06:39:53.780Z,85.51
2017-10-10T06:40:53.801Z,84.94
2017-10-10T06:41:53.821Z,85.13
2017-10-10T06:42:53.840Z,86.18
2017-10-10T06:43:53.858Z,86.28
2017-10-10T06:44:53.878Z,86.04
2017-10-10T06:45:53.899Z,85.61
2017-10-10T06:46:53.918Z,85.32
2017-10-10T06:47:53.941Z,84.94
2017-10-10T06:48:53.965Z,85.22
2017-10-10T06:49:53.978Z,84.94
2017-10-10T06:50:54.023Z,84.84
2017-10-10T06:51:54.018Z,84.75
2017-10-10T06:52:54.054Z,85.32
2017-10-10T06:53:54.060Z,85.51
2017-10-10T06:54:54.081Z,84.75
2017-10-10T06:55:54.098Z,85.22
2017-10-10T06:56:54.156Z,85.13
2017-10-10T06:57:54.147Z,85.32
2017-10-10T06:58:54.162Z,85.03
2017-10-10T06:59:54.179Z,85.03
2017-10-10T07:00:54.200Z,85.03
2017-10-10T07:01:54.235Z,84.94
2017-10-10T07:02:54.241Z,84.17
2017-10-10T07:03:54.260Z,84.75
2017-10-10T07:04:54.280Z,84.79
2017-10-10T07:05:54.300Z,85.03
2017-10-10T07:06:54.319Z,85.03
2017-10-10T07:07:54.340Z,84.65
2017-10-10T07:08:54.362Z,84.94
2017-10-10T07:09:54.382Z,84.88
2017-10-10T07:10:54.399Z,84.50
2017-10-10T07:11:54.419Z,85.03
2017-10-10T07:12:54.443Z,84.84
2017-10-10T07:13:54.461Z,85.41
2017-10-10T07:14:54.481Z,85.61
2017-10-10T07:15:54.500Z,85.89
2017-10-10T07:16:54.519Z,85.80
2017-10-10T07:17:54.540Z,85.80
2017-10-10T07:18:54.560Z,85.51
2017-10-10T07:19:54.587Z,84.94
2017-10-10T07:20:54.600Z,85.32
2017-10-10T07:21:54.656Z,84.94
2017-10-10T07:22:54.643Z,84.94
2017-10-10T07:23:54.663Z,84.84
2017-10-10T07:24:54.681Z,85.03
2017-10-10T07:25:54.724Z,84.94
2017-10-10T07:26:54.728Z,84.65
2017-10-10T07:27:54.860Z,85.13
2017-10-10T07:28:54.766Z,85.13
2017-10-10T07:29:54.787Z,84.84
2017-10-10T07:30:54.804Z,85.32
2017-10-10T07:31:54.833Z,85.80
2017-10-10T07:32:54.844Z,85.99
2017-10-10T07:33:54.859Z,86.18
2017-10-10T07:34:54.884Z,86.18
2017-10-10T07:35:54.903Z,85.51
2017-10-10T07:36:54.927Z,85.13
2017-10-10T07:37:54.943Z,85.41
2017-10-10T07:38:54.960Z,84.98
2017-10-10T07:39:54.984Z,84.75
2017-10-10T07:40:55.005Z,85.89
2017-10-10T07:41:55.020Z,85.22
2017-10-10T07:42:55.043Z,85.32
2017-10-10T07:43:55.062Z,84.79
2017-10-10T07:44:55.084Z,84.88
2017-10-10T07:45:55.101Z,85.08
2017-10-10T07:46:55.123Z,85.08
2017-10-10T07:47:55.141Z,84.98
2017-10-10T07:48:55.173Z,84.69
2017-10-10T07:49:55.182Z,84.84
2017-10-10T07:50:55.197Z,85.84
2017-10-10T07:51:55.218Z,84.79
2017-10-10T07:52:55.234Z,85.27
2017-10-10T07:53:55.268Z,85.08
2017-10-10T07:54:55.274Z,85.80
2017-10-10T07:55:55.297Z,86.37
2017-10-10T07:56:55.329Z,85.75
2017-10-10T07:57:55.345Z,86.08
2017-10-10T07:58:55.387Z,86.18
2017-10-10T07:59:55.384Z,86.66
2017-10-10T08:00:55.425Z,85.89
2017-10-10T08:01:55.425Z,86.13
2017-10-10T08:02:55.447Z,85.84
2017-10-10T08:03:55.464Z,86.18
2017-10-10T08:04:55.486Z,86.28
2017-10-10T08:05:55.506Z,86.22
2017-10-10T08:06:55.528Z,85.84
2017-10-10T08:07:55.549Z,86.18
2017-10-10T08:08:55.570Z,86.04
2017-10-10T08:09:55.587Z,85.94
2017-10-10T08:10:55.606Z,86.13
2017-10-10T08:11:55.627Z,85.84
2017-10-10T08:12:55.647Z,86.04
2017-10-10T08:13:55.666Z,85.65
2017-10-10T08:14:55.687Z,86.13
2017-10-10T08:15:55.708Z,85.55
2017-10-10T08:16:55.744Z,85.65
2017-10-10T08:17:55.751Z,85.75
2017-10-10T08:18:55.767Z,85.17
2017-10-10T08:19:55.791Z,85.17
2017-10-10T08:20:55.809Z,84.98
2017-10-10T08:21:55.830Z,86.18
2017-10-10T08:22:55.870Z,86.90
2017-10-10T08:23:55.870Z,85.94
2017-10-10T08:24:55.891Z,86.04
2017-10-10T08:25:55.917Z,85.27
2017-10-10T08:26:55.932Z,85.12
2017-10-10T08:27:55.959Z,84.83
2017-10-10T08:28:55.973Z,84.98
2017-10-10T08:29:56.036Z,85.46
2017-10-10T08:30:56.018Z,84.92
2017-10-10T08:31:56.038Z,85.08
2017-10-10T08:32:56.053Z,85.17
2017-10-10T08:33:56.074Z,85.65
2017-10-10T08:34:56.095Z,85.27
2017-10-10T08:35:56.114Z,85.02
2017-10-10T08:36:56.147Z,85.08
2017-10-10T08:37:56.175Z,85.94
2017-10-10T08:38:56.179Z,85.84
2017-10-10T08:39:56.195Z,86.04
2017-10-10T08:40:56.219Z,86.13
2017-10-10T08:41:56.237Z,86.41
2017-10-10T08:42:56.256Z,86.61
2017-10-10T08:43:56.282Z,86.70
2017-10-10T08:44:56.298Z,86.41
2017-10-10T08:45:56.318Z,86.51
2017-10-10T08:46:56.340Z,86.22
2017-10-10T08:47:56.358Z,86.17
2017-10-10T08:48:56.389Z,85.94
2017-10-10T08:49:56.397Z,84.74
2017-10-10T08:50:56.420Z,85.94
2017-10-10T08:51:56.443Z,86.70
2017-10-10T08:52:56.460Z,86.80
2017-10-10T08:53:56.481Z,86.51
2017-10-10T08:54:56.501Z,86.99
2017-10-10T08:55:56.524Z,86.41
2017-10-10T08:56:56.541Z,85.94
2017-10-10T08:57:56.563Z,86.04
2017-10-10T08:58:56.586Z,85.84
2017-10-10T08:59:56.603Z,85.55
2017-10-10T09:00:56.628Z,86.51
2017-10-10T09:01:56.643Z,85.75
2017-10-10T09:02:56.665Z,86.04
2017-10-10T09:03:56.683Z,86.66
2017-10-10T09:04:56.705Z,87.27
2017-10-10T09:05:56.725Z,86.41
2017-10-10T09:06:56.746Z,86.70
2017-10-10T09:07:56.770Z,86.51
2017-10-10T09:08:56.788Z,86.13
2017-10-10T09:09:56.811Z,85.75
2017-10-10T09:10:56.829Z,86.22
2017-10-10T09:11:56.853Z,85.94
2017-10-10T09:12:56.868Z,85.75
2017-10-10T09:13:56.888Z,86.22
2017-10-10T09:14:56.906Z,86.32
2017-10-10T09:15:56.930Z,86.70
2017-10-10T09:16:56.948Z,86.61
2017-10-10T09:17:56.977Z,86.41
2017-10-10T09:18:56.988Z,86.80
2017-10-10T09:19:57.012Z,86.22
2017-10-10T09:20:57.035Z,85.84
2017-10-10T09:21:57.051Z,86.22
2017-10-10T09:22:57.076Z,86.51
2017-10-10T09:23:57.092Z,86.27
2017-10-10T09:24:57.117Z,85.79
2017-10-10T09:25:57.131Z,85.31
2017-10-10T09:26:57.150Z,86.22
2017-10-10T09:27:57.175Z,86.51
2017-10-10T09:28:57.190Z,86.32
2017-10-10T09:29:57.357Z,86.36
2017-10-10T09:30:57.237Z,85.98
2017-10-10T09:31:57.255Z,86.55
2017-10-10T09:32:57.290Z,85.98
2017-10-10T09:33:57.295Z,86.17
2017-10-10T09:34:57.315Z,85.41
2017-10-10T09:35:57.346Z,85.41
2017-10-10T09:36:57.358Z,85.60
2017-10-10T09:37:57.378Z,86.41
2017-10-10T09:38:57.404Z,87.18
2017-10-10T09:39:57.437Z,86.46
2017-10-10T09:40:57.439Z,86.46
2017-10-10T09:41:57.460Z,86.46
2017-10-10T09:42:57.479Z,85.69
2017-10-10T09:43:57.500Z,85.88
2017-10-10T09:44:57.521Z,86.36
2017-10-10T09:45:57.541Z,86.84
2017-10-10T09:46:57.567Z,86.65
2017-10-10T09:47:57.586Z,87.18
2017-10-10T09:48:57.606Z,87.18
2017-10-10T09:49:57.638Z,87.37
2017-10-10T09:50:57.645Z,87.08
2017-10-10T09:51:57.663Z,87.18
2017-10-10T09:52:57.686Z,87.66
2017-10-10T09:53:57.705Z,87.47
2017-10-10T09:54:57.725Z,86.94
2017-10-10T09:55:57.748Z,86.70
2017-10-10T09:56:57.767Z,87.23
2017-10-10T09:57:57.791Z,87.32
2017-10-10T09:58:57.819Z,86.84
2017-10-10T09:59:57.827Z,87.18
2017-10-10T10:00:57.847Z,86.80
2017-10-10T10:01:57.867Z,87.51
2017-10-10T10:02:57.913Z,87.47
2017-10-10T10:03:57.910Z,87.61
2017-10-10T10:04:57.952Z,87.03
2017-10-10T10:05:57.957Z,87.27
2017-10-10T10:06:57.995Z,87.85
2017-10-10T10:07:57.992Z,87.23
2017-10-10T10:08:58.022Z,87.37
2017-10-10T10:09:58.033Z,87.76
2017-10-10T10:10:58.067Z,87.23
2017-10-10T10:11:58.073Z,87.13
2017-10-10T10:12:58.098Z,86.08
2017-10-10T10:13:58.116Z,85.64
2017-10-10T10:14:58.136Z,85.54
2017-10-10T10:15:58.156Z,85.35
2017-10-10T10:16:58.176Z,85.54
2017-10-10T10:17:58.198Z,85.45
2017-10-10T10:18:58.219Z,85.50
2017-10-10T10:19:58.243Z,86.27
2017-10-10T10:20:58.267Z,85.98
2017-10-10T10:21:58.280Z,86.27
2017-10-10T10:22:58.301Z,86.84
2017-10-10T10:23:58.321Z,86.74
2017-10-10T10:24:58.343Z,86.55
2017-10-10T10:25:58.362Z,86.65
2017-10-10T10:26:58.388Z,86.84
2017-10-10T10:27:58.406Z,86.27
2017-10-10T10:28:58.429Z,86.36
2017-10-10T10:29:58.449Z,87.32
2017-10-10T10:30:58.469Z,87.23
2017-10-10T10:31:58.510Z,87.13
2017-10-10T10:32:58.515Z,87.95
2017-10-10T10:33:58.528Z,88.37
2017-10-10T10:34:58.547Z,87.80
2017-10-10T10:35:58.589Z,87.08
2017-10-10T10:36:58.591Z,86.31
2017-10-10T10:37:58.612Z,84.97
2017-10-10T10:38:58.631Z,85.06
2017-10-10T10:39:58.822Z,85.64
2017-10-10T10:40:58.674Z,85.97
2017-10-10T10:41:58.746Z,84.44
2017-10-10T10:42:58.722Z,84.44
2017-10-10T10:43:58.736Z,83.95
2017-10-10T10:44:58.757Z,82.94
2017-10-10T10:45:58.778Z,82.62
2017-10-10T10:46:58.801Z,83.14
2017-10-10T10:47:58.822Z,83.38
2017-10-10T10:48:58.841Z,83.33
2017-10-10T10:49:58.884Z,82.56
2017-10-10T10:50:58.883Z,83.48
2017-10-10T10:51:58.905Z,83.76
2017-10-10T10:52:58.928Z,83.48
2017-10-10T10:53:58.947Z,83.48
2017-10-10T10:54:58.974Z,83.14
2017-10-10T10:55:58.990Z,82.71
2017-10-10T10:56:59.014Z,82.81
2017-10-10T10:57:59.033Z,82.90
2017-10-10T10:58:59.225Z,83.34
2017-10-10T10:59:59.076Z,84.20
2017-10-10T11:00:59.094Z,85.06
2017-10-10T11:01:59.161Z,85.83
2017-10-10T11:02:59.136Z,85.25
2017-10-10T11:03:59.157Z,86.02
2017-10-10T11:04:59.199Z,86.84
2017-10-10T11:05:59.203Z,86.84
2017-10-10T11:06:59.225Z,86.31
2017-10-10T11:07:59.245Z,85.54
2017-10-10T11:08:59.292Z,85.93
2017-10-10T11:09:59.283Z,85.64
2017-10-10T11:10:59.305Z,85.54
2017-10-10T11:11:59.329Z,85.25
2017-10-10T11:12:59.360Z,84.58
2017-10-10T11:13:59.368Z,84.25
2017-10-10T11:14:59.391Z,84.05
2017-10-10T11:15:59.410Z,84.30
2017-10-10T11:16:59.442Z,84.25
2017-10-10T11:17:59.449Z,83.44
2017-10-10T11:18:59.471Z,84.49
2017-10-10T11:19:59.497Z,83.95
2017-10-10T11:20:59.515Z,82.65
2017-10-10T11:21:59.536Z,82.56
2017-10-10T11:22:59.561Z,81.70
2017-10-10T11:23:59.588Z,81.98
2017-10-10T11:24:59.598Z,82.37
2017-10-10T11:25:59.624Z,81.60
2017-10-10T11:26:59.641Z,81.22
2017-10-10T11:27:59.663Z,81.41
2017-10-10T11:28:59.686Z,82.18
2017-10-10T11:29:59.703Z,82.56
2017-10-10T11:30:59.725Z,81.74
2017-10-10T11:31:59.748Z,81.64
2017-10-10T11:32:59.774Z,80.78
2017-10-10T11:33:59.795Z,79.76
2017-10-10T11:34:59.814Z,81.16
2017-10-10T11:35:59.833Z,80.68
2017-10-10T11:36:59.864Z,80.97
2017-10-10T11:37:59.877Z,80.97
2017-10-10T11:38:59.901Z,80.68
2017-10-10T11:39:59.918Z,79.82
2017-10-10T11:40:59.941Z,80.55
2017-10-10T11:41:59.977Z,81.12
2017-10-10T11:42:59.984Z,81.02
2017-10-10T11:44:00.004Z,80.35
2017-10-10T11:45:00.028Z,81.08
2017-10-10T11:46:00.070Z,82.48
2017-10-10T11:47:00.079Z,81.75
2017-10-10T11:48:00.091Z,82.23
2017-10-10T11:49:00.114Z,81.79
2017-10-10T11:50:00.151Z,80.83
2017-10-10T11:51:00.155Z,80.74
2017-10-10T11:52:00.180Z,80.45
2017-10-10T11:53:00.199Z,80.93
2017-10-10T11:54:00.221Z,80.83
2017-10-10T11:55:00.240Z,80.74
2017-10-10T11:56:00.264Z,79.78
2017-10-10T11:57:00.285Z,79.97
2017-10-10T11:58:00.306Z,79.88
2017-10-10T11:59:00.325Z,80.78
2017-10-10T12:00:00.365Z,79.38
2017-10-10T12:01:00.370Z,78.13
2017-10-10T12:02:00.389Z,77.31
2017-10-10T12:03:00.425Z,76.92
2017-10-10T12:04:00.434Z,77.01
2017-10-10T12:05:00.459Z,77.31
2017-10-10T12:06:00.478Z,77.46
2017-10-10T12:07:00.500Z,76.69
2017-10-10T12:08:00.521Z,77.26
2017-10-10T12:09:00.558Z,77.46
2017-10-10T12:10:00.570Z,76.98
2017-10-10T12:11:00.594Z,77.36
2017-10-10T12:12:00.615Z,77.56
2017-10-10T12:13:00.632Z,77.71
2017-10-10T12:14:00.657Z,77.84
2017-10-10T12:15:00.673Z,77.46
2017-10-10T12:16:00.696Z,77.17
2017-10-10T12:17:00.733Z,76.79
2017-10-10T12:18:00.739Z,77.01
2017-10-10T12:19:00.761Z,76.73
2017-10-10T12:20:00.789Z,76.64
2017-10-10T12:21:00.802Z,76.64
2017-10-10T12:22:00.826Z,75.96
2017-10-10T12:23:00.846Z,76.27
2017-10-10T12:24:00.870Z,76.84
2017-10-10T12:25:00.893Z,78.63
2017-10-10T12:26:00.916Z,78.72
2017-10-10T12:27:00.934Z,79.16
2017-10-10T12:28:00.956Z,79.39
2017-10-10T12:29:00.979Z,79.45
2017-10-10T12:30:01.005Z,79.78
2017-10-10T12:31:01.026Z,79.01
2017-10-10T12:32:01.042Z,79.97
2017-10-10T12:33:01.067Z,79.97
2017-10-10T12:34:01.087Z,79.59
2017-10-10T12:35:01.110Z,78.72
2017-10-10T12:36:01.128Z,78.92
2017-10-10T12:37:01.156Z,78.82
2017-10-10T12:38:01.194Z,78.34
2017-10-10T12:39:01.191Z,78.63
2017-10-10T12:40:01.221Z,78.28
2017-10-10T12:41:01.243Z,78.38
2017-10-10T12:42:01.273Z,78.82
2017-10-10T12:43:01.282Z,79.11
2017-10-10T12:44:01.305Z,79.49
2017-10-10T12:45:01.324Z,79.01
2017-10-10T12:46:01.483Z,79.78
2017-10-10T12:47:01.363Z,79.97
2017-10-10T12:48:01.392Z,79.93
2017-10-10T12:49:01.409Z,79.93
2017-10-10T12:50:01.433Z,79.78
2017-10-10T12:51:01.448Z,79.49
2017-10-10T12:52:01.467Z,79.88
2017-10-10T12:53:01.489Z,80.07